Riverside Municipal Airport
KRAL : rendu visible

Aérodrome :











RETROUVEZ-NOUS SUR...

 
LOGIN :

S'inscrire | Disclaimer

   EN    FR    IT 

 









Légende :    VFR   VFR Marginal   IFR   IFR Intensif   IFR Très Intensif
Visi : 
Plafond : 
>= 8 km
>= 3000ft
5 à 8 km
1000 à 3000 ft
1500m à 5 km
500 à 1000 ft
800 à 1500m
200 à 500 ft
< 800m
< 200 ft
Symboles :   Orages  Brouillard  Fortes neiges  Fortes précipitations  Vent > 20 kt






- Altitude de l'aérodrome : 819 ft


KRAL - Riverside Municipal

DERNIER METAR :
  • 031353Z 00000KT 10SM CLR 21/13 A2992 RMK AO2 SLP116 T02060133

METARs EXPIRÉS :
  • 031253Z AUTO 00000KT 10SM CLR 19/12 A2991 RMK AO2 SLP111 T01940122
  • 031153Z AUTO 04006KT 10SM CLR 21/12 A2989 RMK AO2 SLP106 T02060122 10222 20194 56017

TAF N/A
FIR KZLA / Amérique du Nord



MET'MAP, la Météo Aéronautique d'un coup d'oeil ! - Copyright ORBIFLY Décembre 2007 - Disclaimer

ORBIFLY MET'MAP TEAM :

Programmation & Développement : Alexandra Zaïnal
Sur une idée originale de : Baudouin d'Aumeries
Assistance à la programmation : Marc-Olivier Méhu
Soutien technique & logistique : Manuel Goepfert

Contact : metmap@orbifly.com




SOURCES & CREDITS :

   NOAA       Earth
Advisory